sensor_id;sensor_type;location;lat;lon;timestamp;temperature;humidity
26757;DHT22;23848;49.798;10.228;2024-03-23T00:55:24;8.00;99.90
26757;DHT22;23848;49.798;10.228;2024-03-23T00:57:50;8.00;99.90
26757;DHT22;23848;49.798;10.228;2024-03-23T01:00:18;8.00;99.90
26757;DHT22;23848;49.798;10.228;2024-03-23T01:02:44;7.90;99.90
26757;DHT22;23848;49.798;10.228;2024-03-23T01:05:11;7.90;99.90
26757;DHT22;23848;49.798;10.228;2024-03-23T01:07:37;7.90;99.90
26757;DHT22;23848;49.798;10.228;2024-03-23T01:10:05;7.90;99.90
26757;DHT22;23848;49.798;10.228;2024-03-23T01:12:32;7.90;99.90
26757;DHT22;23848;49.798;10.228;2024-03-23T01:14:59;7.80;99.90
26757;DHT22;23848;49.798;10.228;2024-03-23T01:17:25;7.90;99.90
26757;DHT22;23848;49.798;10.228;2024-03-23T01:19:52;7.80;99.90
26757;DHT22;23848;49.798;10.228;2024-03-23T01:22:18;7.70;99.90
26757;DHT22;23848;49.798;10.228;2024-03-23T01:24:45;7.70;99.90
26757;DHT22;23848;49.798;10.228;2024-03-23T01:27:12;7.60;99.90
26757;DHT22;23848;49.798;10.228;2024-03-23T01:29:40;7.70;99.90
26757;DHT22;23848;49.798;10.228;2024-03-23T01:32:06;7.60;99.90
26757;DHT22;23848;49.798;10.228;2024-03-23T01:34:33;7.60;99.90
26757;DHT22;23848;49.798;10.228;2024-03-23T01:37:00;7.50;99.90
26757;DHT22;23848;49.798;10.228;2024-03-23T01:39:27;7.50;99.90
26757;DHT22;23848;49.798;10.228;2024-03-23T01:41:53;7.50;99.90
26757;DHT22;23848;49.798;10.228;2024-03-23T01:44:20;7.40;99.90
26757;DHT22;23848;49.798;10.228;2024-03-23T01:46:47;7.40;99.90
26757;DHT22;23848;49.798;10.228;2024-03-23T01:49:15;7.40;99.90
26757;DHT22;23848;49.798;10.228;2024-03-23T01:51:42;7.30;99.90
26757;DHT22;23848;49.798;10.228;2024-03-23T01:54:10;7.30;99.90
26757;DHT22;23848;49.798;10.228;2024-03-23T01:56:36;7.30;99.90
26757;DHT22;23848;49.798;10.228;2024-03-23T01:59:04;7.30;99.90
26757;DHT22;23848;49.798;10.228;2024-03-23T02:01:30;7.30;99.90
26757;DHT22;23848;49.798;10.228;2024-03-23T02:03:58;7.30;99.90
26757;DHT22;23848;49.798;10.228;2024-03-23T02:06:25;7.30;99.90
26757;DHT22;23848;49.798;10.228;2024-03-23T02:08:53;7.30;99.90
26757;DHT22;23848;49.798;10.228;2024-03-23T02:11:19;7.30;99.90
26757;DHT22;23848;49.798;10.228;2024-03-23T02:13:46;7.30;99.90
26757;DHT22;23848;49.798;10.228;2024-03-23T02:16:12;7.30;99.90
26757;DHT22;23848;49.798;10.228;2024-03-23T02:18:40;7.30;99.90
26757;DHT22;23848;49.798;10.228;2024-03-23T02:21:07;7.40;99.90
26757;DHT22;23848;49.798;10.228;2024-03-23T02:23:36;7.40;99.90
26757;DHT22;23848;49.798;10.228;2024-03-23T02:26:02;7.40;99.90
26757;DHT22;23848;49.798;10.228;2024-03-23T02:28:29;7.50;99.90
26757;DHT22;23848;49.798;10.228;2024-03-23T02:30:55;7.40;99.90
26757;DHT22;23848;49.798;10.228;2024-03-23T02:33:22;7.50;99.90
26757;DHT22;23848;49.798;10.228;2024-03-23T02:35:49;7.50;99.90
26757;DHT22;23848;49.798;10.228;2024-03-23T02:38:16;7.50;99.90
26757;DHT22;23848;49.798;10.228;2024-03-23T02:40:44;7.50;99.90
26757;DHT22;23848;49.798;10.228;2024-03-23T02:43:11;7.60;99.90
26757;DHT22;23848;49.798;10.228;2024-03-23T02:45:37;7.70;99.90
26757;DHT22;23848;49.798;10.228;2024-03-23T02:48:05;7.70;99.90
26757;DHT22;23848;49.798;10.228;2024-03-23T02:50:31;7.70;99.90
26757;DHT22;23848;49.798;10.228;2024-03-23T02:52:58;7.70;99.90
26757;DHT22;23848;49.798;10.228;2024-03-23T02:55:25;7.80;99.90
26757;DHT22;23848;49.798;10.228;2024-03-23T02:57:53;7.70;99.90
26757;DHT22;23848;49.798;10.228;2024-03-23T03:00:20;7.70;99.90
26757;DHT22;23848;49.798;10.228;2024-03-23T03:02:47;7.70;99.90
26757;DHT22;23848;49.798;10.228;2024-03-23T03:05:13;7.70;99.90
26757;DHT22;23848;49.798;10.228;2024-03-23T03:07:40;7.70;99.90
26757;DHT22;23848;49.798;10.228;2024-03-23T03:10:07;7.80;99.90
26757;DHT22;23848;49.798;10.228;2024-03-23T03:12:36;7.80;99.90
26757;DHT22;23848;49.798;10.228;2024-03-23T03:15:06;7.90;99.90
26757;DHT22;23848;49.798;10.228;2024-03-23T03:17:32;7.90;99.90
26757;DHT22;23848;49.798;10.228;2024-03-23T03:19:59;7.90;99.90
26757;DHT22;23848;49.798;10.228;2024-03-23T03:22:25;8.00;99.90
26757;DHT22;23848;49.798;10.228;2024-03-23T03:24:52;8.00;99.90
26757;DHT22;23848;49.798;10.228;2024-03-23T03:27:18;8.00;99.90
26757;DHT22;23848;49.798;10.228;2024-03-23T03:29:46;8.00;99.90
26757;DHT22;23848;49.798;10.228;2024-03-23T03:32:13;8.10;99.90
26757;DHT22;23848;49.798;10.228;2024-03-23T03:34:40;8.10;99.90
26757;DHT22;23848;49.798;10.228;2024-03-23T03:37:06;8.00;99.90
26757;DHT22;23848;49.798;10.228;2024-03-23T03:39:33;8.00;99.90
26757;DHT22;23848;49.798;10.228;2024-03-23T03:41:59;8.10;99.90
26757;DHT22;23848;49.798;10.228;2024-03-23T03:44:27;8.10;99.90
26757;DHT22;23848;49.798;10.228;2024-03-23T03:46:53;8.20;99.90
26757;DHT22;23848;49.798;10.228;2024-03-23T03:49:22;8.30;99.90
26757;DHT22;23848;49.798;10.228;2024-03-23T03:51:48;8.40;99.90
26757;DHT22;23848;49.798;10.228;2024-03-23T03:54:15;8.60;99.90
26757;DHT22;23848;49.798;10.228;2024-03-23T03:56:41;8.70;99.90
26757;DHT22;23848;49.798;10.228;2024-03-23T03:59:08;8.90;99.90
26757;DHT22;23848;49.798;10.228;2024-03-23T04:01:34;9.00;99.90
26757;DHT22;23848;49.798;10.228;2024-03-23T04:04:01;9.10;99.90
26757;DHT22;23848;49.798;10.228;2024-03-23T04:06:28;9.20;99.90
26757;DHT22;23848;49.798;10.228;2024-03-23T04:08:55;9.30;99.90
26757;DHT22;23848;49.798;10.228;2024-03-23T04:11:21;9.30;99.90
26757;DHT22;23848;49.798;10.228;2024-03-23T04:13:48;9.40;99.90
26757;DHT22;23848;49.798;10.228;2024-03-23T04:16:26;9.50;99.90
26757;DHT22;23848;49.798;10.228;2024-03-23T04:18:53;9.60;99.90
26757;DHT22;23848;49.798;10.228;2024-03-23T04:21:19;9.70;99.90
26757;DHT22;23848;49.798;10.228;2024-03-23T04:23:48;9.70;99.90
26757;DHT22;23848;49.798;10.228;2024-03-23T04:26:15;9.80;99.90
26757;DHT22;23848;49.798;10.228;2024-03-23T04:28:42;9.90;99.90
26757;DHT22;23848;49.798;10.228;2024-03-23T04:31:09;10.00;99.90
26757;DHT22;23848;49.798;10.228;2024-03-23T04:33:36;10.10;99.90
26757;DHT22;23848;49.798;10.228;2024-03-23T04:36:02;10.10;99.90
26757;DHT22;23848;49.798;10.228;2024-03-23T04:38:29;10.10;99.90
26757;DHT22;23848;49.798;10.228;2024-03-23T04:40:59;10.20;99.90
26757;DHT22;23848;49.798;10.228;2024-03-23T04:43:26;10.20;99.90
26757;DHT22;23848;49.798;10.228;2024-03-23T04:45:54;10.20;99.90
26757;DHT22;23848;49.798;10.228;2024-03-23T04:48:21;10.10;99.90
26757;DHT22;23848;49.798;10.228;2024-03-23T04:50:49;10.20;99.90
26757;DHT22;23848;49.798;10.228;2024-03-23T04:53:16;10.10;99.90
26757;DHT22;23848;49.798;10.228;2024-03-23T04:55:43;10.20;99.90
26757;DHT22;23848;49.798;10.228;2024-03-23T04:58:11;10.10;99.90
26757;DHT22;23848;49.798;10.228;2024-03-23T05:00:38;10.10;99.90
26757;DHT22;23848;49.798;10.228;2024-03-23T05:03:05;10.10;99.90
26757;DHT22;23848;49.798;10.228;2024-03-23T05:05:32;10.10;99.90
26757;DHT22;23848;49.798;10.228;2024-03-23T05:07:58;10.10;99.90
26757;DHT22;23848;49.798;10.228;2024-03-23T05:10:25;10.10;99.90
26757;DHT22;23848;49.798;10.228;2024-03-23T05:12:51;10.10;99.90
26757;DHT22;23848;49.798;10.228;2024-03-23T05:15:20;10.10;99.90
26757;DHT22;23848;49.798;10.228;2024-03-23T05:17:46;10.20;99.90
26757;DHT22;23848;49.798;10.228;2024-03-23T05:20:13;10.20;99.90
26757;DHT22;23848;49.798;10.228;2024-03-23T05:22:40;10.20;99.90
26757;DHT22;23848;49.798;10.228;2024-03-23T05:25:07;10.30;99.90
26757;DHT22;23848;49.798;10.228;2024-03-23T05:27:35;10.30;99.90
26757;DHT22;23848;49.798;10.228;2024-03-23T05:30:02;10.30;99.90
26757;DHT22;23848;49.798;10.228;2024-03-23T05:32:30;10.30;99.90
26757;DHT22;23848;49.798;10.228;2024-03-23T05:35:02;10.30;99.90
26757;DHT22;23848;49.798;10.228;2024-03-23T05:37:29;10.40;99.90
26757;DHT22;23848;49.798;10.228;2024-03-23T05:39:59;10.40;99.90
26757;DHT22;23848;49.798;10.228;2024-03-23T05:42:25;10.40;99.90
26757;DHT22;23848;49.798;10.228;2024-03-23T05:44:52;10.40;99.90
26757;DHT22;23848;49.798;10.228;2024-03-23T05:47:19;10.40;99.90
26757;DHT22;23848;49.798;10.228;2024-03-23T05:49:47;10.50;99.90
26757;DHT22;23848;49.798;10.228;2024-03-23T05:52:13;10.50;99.90
26757;DHT22;23848;49.798;10.228;2024-03-23T05:54:41;10.50;99.90
26757;DHT22;23848;49.798;10.228;2024-03-23T05:57:09;10.60;99.90
26757;DHT22;23848;49.798;10.228;2024-03-23T05:59:37;10.60;99.90
26757;DHT22;23848;49.798;10.228;2024-03-23T06:02:03;10.60;99.90
26757;DHT22;23848;49.798;10.228;2024-03-23T06:04:30;10.70;99.90
26757;DHT22;23848;49.798;10.228;2024-03-23T06:06:58;10.70;99.90
26757;DHT22;23848;49.798;10.228;2024-03-23T06:09:25;10.70;99.90
26757;DHT22;23848;49.798;10.228;2024-03-23T06:11:51;10.80;99.90
26757;DHT22;23848;49.798;10.228;2024-03-23T06:14:18;10.80;99.90
26757;DHT22;23848;49.798;10.228;2024-03-23T06:16:44;10.80;99.90
26757;DHT22;23848;49.798;10.228;2024-03-23T06:19:11;10.80;99.90
26757;DHT22;23848;49.798;10.228;2024-03-23T06:21:37;10.80;99.90
26757;DHT22;23848;49.798;10.228;2024-03-23T06:24:10;10.80;99.90
26757;DHT22;23848;49.798;10.228;2024-03-23T06:26:37;10.80;99.90
26757;DHT22;23848;49.798;10.228;2024-03-23T06:29:04;10.90;99.90
26757;DHT22;23848;49.798;10.228;2024-03-23T06:31:31;10.80;99.90
26757;DHT22;23848;49.798;10.228;2024-03-23T06:33:58;10.80;99.90
26757;DHT22;23848;49.798;10.228;2024-03-23T06:36:25;10.80;99.90
26757;DHT22;23848;49.798;10.228;2024-03-23T06:38:51;10.70;99.90
26757;DHT22;23848;49.798;10.228;2024-03-23T06:41:20;10.70;99.90
26757;DHT22;23848;49.798;10.228;2024-03-23T06:43:46;10.60;99.90
26757;DHT22;23848;49.798;10.228;2024-03-23T06:46:13;10.50;99.90
26757;DHT22;23848;49.798;10.228;2024-03-23T06:48:39;10.40;99.90
26757;DHT22;23848;49.798;10.228;2024-03-23T06:51:06;10.40;99.90
26757;DHT22;23848;49.798;10.228;2024-03-23T06:53:32;10.40;99.90
26757;DHT22;23848;49.798;10.228;2024-03-23T06:55:59;10.30;99.90
26757;DHT22;23848;49.798;10.228;2024-03-23T06:58:28;10.30;99.90
26757;DHT22;23848;49.798;10.228;2024-03-23T07:00:55;10.30;99.90
26757;DHT22;23848;49.798;10.228;2024-03-23T07:03:21;10.40;99.90
26757;DHT22;23848;49.798;10.228;2024-03-23T07:05:49;10.30;99.90
26757;DHT22;23848;49.798;10.228;2024-03-23T07:08:15;10.30;99.90
26757;DHT22;23848;49.798;10.228;2024-03-23T07:10:47;10.20;99.90
26757;DHT22;23848;49.798;10.228;2024-03-23T07:13:13;10.10;99.90
26757;DHT22;23848;49.798;10.228;2024-03-23T07:15:41;10.10;99.90
26757;DHT22;23848;49.798;10.228;2024-03-23T07:18:07;10.10;99.90
26757;DHT22;23848;49.798;10.228;2024-03-23T07:20:34;10.00;99.90
26757;DHT22;23848;49.798;10.228;2024-03-23T07:23:00;10.00;99.90
26757;DHT22;23848;49.798;10.228;2024-03-23T07:25:28;10.00;99.90
26757;DHT22;23848;49.798;10.228;2024-03-23T07:27:55;9.90;99.90
26757;DHT22;23848;49.798;10.228;2024-03-23T07:30:22;9.90;99.90
26757;DHT22;23848;49.798;10.228;2024-03-23T07:32:49;9.90;99.90
26757;DHT22;23848;49.798;10.228;2024-03-23T07:35:16;9.80;99.90
26757;DHT22;23848;49.798;10.228;2024-03-23T07:37:43;9.70;99.90
26757;DHT22;23848;49.798;10.228;2024-03-23T07:40:11;9.60;99.90
26757;DHT22;23848;49.798;10.228;2024-03-23T07:42:37;9.50;99.90
26757;DHT22;23848;49.798;10.228;2024-03-23T07:45:05;9.30;99.90
26757;DHT22;23848;49.798;10.228;2024-03-23T07:47:31;9.20;99.90
26757;DHT22;23848;49.798;10.228;2024-03-23T07:50:00;9.10;99.90
26757;DHT22;23848;49.798;10.228;2024-03-23T07:52:28;9.00;99.90
26757;DHT22;23848;49.798;10.228;2024-03-23T07:54:55;8.90;99.90
26757;DHT22;23848;49.798;10.228;2024-03-23T07:57:21;8.70;99.90
26757;DHT22;23848;49.798;10.228;2024-03-23T07:59:48;8.60;99.90
26757;DHT22;23848;49.798;10.228;2024-03-23T08:02:15;8.60;99.90
26757;DHT22;23848;49.798;10.228;2024-03-23T08:04:42;8.50;99.90
26757;DHT22;23848;49.798;10.228;2024-03-23T08:07:09;8.50;99.90
26757;DHT22;23848;49.798;10.228;2024-03-23T08:09:36;8.40;99.90
26757;DHT22;23848;49.798;10.228;2024-03-23T08:12:03;8.30;99.90
26757;DHT22;23848;49.798;10.228;2024-03-23T08:14:30;8.30;99.90
26757;DHT22;23848;49.798;10.228;2024-03-23T08:16:57;8.20;99.90
26757;DHT22;23848;49.798;10.228;2024-03-23T08:19:24;8.10;99.90
26757;DHT22;23848;49.798;10.228;2024-03-23T08:21:50;8.10;99.90
26757;DHT22;23848;49.798;10.228;2024-03-23T08:24:19;8.10;99.90
26757;DHT22;23848;49.798;10.228;2024-03-23T08:26:45;8.10;99.90
26757;DHT22;23848;49.798;10.228;2024-03-23T08:29:12;8.10;99.90
26757;DHT22;23848;49.798;10.228;2024-03-23T08:31:40;8.10;99.90
26757;DHT22;23848;49.798;10.228;2024-03-23T08:34:12;8.10;99.90
26757;DHT22;23848;49.798;10.228;2024-03-23T08:36:41;8.10;99.90
26757;DHT22;23848;49.798;10.228;2024-03-23T08:39:09;8.10;99.90
26757;DHT22;23848;49.798;10.228;2024-03-23T08:41:40;8.20;99.90
26757;DHT22;23848;49.798;10.228;2024-03-23T08:44:12;8.20;99.90
26757;DHT22;23848;49.798;10.228;2024-03-23T08:46:38;8.30;99.90
26757;DHT22;23848;49.798;10.228;2024-03-23T08:49:18;8.30;99.90
26757;DHT22;23848;49.798;10.228;2024-03-23T08:51:46;8.40;99.90
26757;DHT22;23848;49.798;10.228;2024-03-23T08:54:16;8.40;99.90
26757;DHT22;23848;49.798;10.228;2024-03-23T08:56:49;8.40;99.90
26757;DHT22;23848;49.798;10.228;2024-03-23T08:59:18;8.50;99.90
26757;DHT22;23848;49.798;10.228;2024-03-23T09:01:54;8.40;99.90
26757;DHT22;23848;49.798;10.228;2024-03-23T09:04:20;8.40;99.90
26757;DHT22;23848;49.798;10.228;2024-03-23T09:06:48;8.30;99.90
26757;DHT22;23848;49.798;10.228;2024-03-23T09:09:17;8.30;99.90
26757;DHT22;23848;49.798;10.228;2024-03-23T09:11:54;8.30;99.90
26757;DHT22;23848;49.798;10.228;2024-03-23T09:14:23;8.40;99.90
26757;DHT22;23848;49.798;10.228;2024-03-23T09:16:55;8.50;99.90
26757;DHT22;23848;49.798;10.228;2024-03-23T09:19:29;8.60;99.90
26757;DHT22;23848;49.798;10.228;2024-03-23T09:21:59;8.60;99.90
26757;DHT22;23848;49.798;10.228;2024-03-23T09:24:36;8.60;99.90
26757;DHT22;23848;49.798;10.228;2024-03-23T09:27:07;8.70;99.90
26757;DHT22;23848;49.798;10.228;2024-03-23T09:29:41;8.80;99.90
26757;DHT22;23848;49.798;10.228;2024-03-23T09:32:13;8.80;99.90
26757;DHT22;23848;49.798;10.228;2024-03-23T09:34:44;8.80;99.90
26757;DHT22;23848;49.798;10.228;2024-03-23T09:37:13;8.80;99.90
26757;DHT22;23848;49.798;10.228;2024-03-23T09:39:41;8.70;99.90
26757;DHT22;23848;49.798;10.228;2024-03-23T09:42:23;8.70;99.90
26757;DHT22;23848;49.798;10.228;2024-03-23T09:44:52;8.80;99.90
26757;DHT22;23848;49.798;10.228;2024-03-23T09:47:19;8.80;99.90
26757;DHT22;23848;49.798;10.228;2024-03-23T09:49:46;8.90;99.90
26757;DHT22;23848;49.798;10.228;2024-03-23T09:52:20;8.80;99.90
26757;DHT22;23848;49.798;10.228;2024-03-23T09:54:46;8.80;99.90
26757;DHT22;23848;49.798;10.228;2024-03-23T09:57:23;8.80;99.90
26757;DHT22;23848;49.798;10.228;2024-03-23T09:59:59;9.00;99.90
26757;DHT22;23848;49.798;10.228;2024-03-23T10:02:35;9.20;99.90
26757;DHT22;23848;49.798;10.228;2024-03-23T10:05:02;9.30;99.90
26757;DHT22;23848;49.798;10.228;2024-03-23T10:07:41;9.40;99.90
26757;DHT22;23848;49.798;10.228;2024-03-23T10:10:11;9.40;99.90
26757;DHT22;23848;49.798;10.228;2024-03-23T10:12:44;9.40;99.90
26757;DHT22;23848;49.798;10.228;2024-03-23T10:15:18;9.50;99.90
26757;DHT22;23848;49.798;10.228;2024-03-23T10:17:47;9.50;99.90
26757;DHT22;23848;49.798;10.228;2024-03-23T10:20:13;9.50;99.90
26757;DHT22;23848;49.798;10.228;2024-03-23T10:22:49;9.50;99.90
26757;DHT22;23848;49.798;10.228;2024-03-23T10:25:17;9.50;99.90
26757;DHT22;23848;49.798;10.228;2024-03-23T10:27:58;9.60;99.90
26757;DHT22;23848;49.798;10.228;2024-03-23T10:30:25;9.60;99.90
26757;DHT22;23848;49.798;10.228;2024-03-23T10:33:06;9.70;99.90
26757;DHT22;23848;49.798;10.228;2024-03-23T10:35:33;9.70;99.90
26757;DHT22;23848;49.798;10.228;2024-03-23T10:38:00;9.80;99.90
26757;DHT22;23848;49.798;10.228;2024-03-23T10:40:27;10.00;99.90
26757;DHT22;23848;49.798;10.228;2024-03-23T10:42:59;10.10;99.90
26757;DHT22;23848;49.798;10.228;2024-03-23T10:45:26;10.10;99.90
26757;DHT22;23848;49.798;10.228;2024-03-23T10:47:55;10.10;99.90
26757;DHT22;23848;49.798;10.228;2024-03-23T10:50:23;10.20;99.90
26757;DHT22;23848;49.798;10.228;2024-03-23T10:52:49;10.50;99.90
26757;DHT22;23848;49.798;10.228;2024-03-23T10:55:21;10.70;99.90
26757;DHT22;23848;49.798;10.228;2024-03-23T10:57:51;10.90;99.90
26757;DHT22;23848;49.798;10.228;2024-03-23T11:00:20;11.00;99.90
26757;DHT22;23848;49.798;10.228;2024-03-23T11:02:50;10.90;99.90
26757;DHT22;23848;49.798;10.228;2024-03-23T11:05:31;10.90;99.90
26757;DHT22;23848;49.798;10.228;2024-03-23T11:07:57;11.00;99.90
26757;DHT22;23848;49.798;10.228;2024-03-23T11:10:29;11.00;99.90
26757;DHT22;23848;49.798;10.228;2024-03-23T11:13:22;11.10;99.90
26757;DHT22;23848;49.798;10.228;2024-03-23T11:15:56;11.20;99.90
26757;DHT22;23848;49.798;10.228;2024-03-23T11:18:40;11.30;99.90
26757;DHT22;23848;49.798;10.228;2024-03-23T11:21:11;11.50;99.90
26757;DHT22;23848;49.798;10.228;2024-03-23T11:24:14;11.80;99.90
26757;DHT22;23848;49.798;10.228;2024-03-23T11:26:47;11.70;99.90
26757;DHT22;23848;49.798;10.228;2024-03-23T11:29:17;11.60;99.90
26757;DHT22;23848;49.798;10.228;2024-03-23T11:31:50;11.40;99.90
26757;DHT22;23848;49.798;10.228;2024-03-23T11:34:17;11.30;99.90
26757;DHT22;23848;49.798;10.228;2024-03-23T11:36:44;11.30;99.90
26757;DHT22;23848;49.798;10.228;2024-03-23T11:39:18;11.10;99.90
26757;DHT22;23848;49.798;10.228;2024-03-23T11:41:47;11.00;99.90
26757;DHT22;23848;49.798;10.228;2024-03-23T11:44:17;10.90;99.90
26757;DHT22;23848;49.798;10.228;2024-03-23T11:46:45;10.90;99.90
26757;DHT22;23848;49.798;10.228;2024-03-23T11:49:26;10.80;99.90
26757;DHT22;23848;49.798;10.228;2024-03-23T11:51:55;10.80;99.90
26757;DHT22;23848;49.798;10.228;2024-03-23T11:54:22;10.80;99.90
26757;DHT22;23848;49.798;10.228;2024-03-23T11:57:00;10.90;99.90
26757;DHT22;23848;49.798;10.228;2024-03-23T11:59:33;11.30;99.90
26757;DHT22;23848;49.798;10.228;2024-03-23T12:02:05;11.60;99.90
26757;DHT22;23848;49.798;10.228;2024-03-23T12:04:33;11.80;99.90
26757;DHT22;23848;49.798;10.228;2024-03-23T12:07:12;11.90;99.90
26757;DHT22;23848;49.798;10.228;2024-03-23T12:09:38;12.10;99.90
26757;DHT22;23848;49.798;10.228;2024-03-23T12:12:08;12.30;99.90
26757;DHT22;23848;49.798;10.228;2024-03-23T12:14:36;12.40;99.90
26757;DHT22;23848;49.798;10.228;2024-03-23T12:17:10;12.50;99.90
26757;DHT22;23848;49.798;10.228;2024-03-23T12:19:40;12.50;99.90
26757;DHT22;23848;49.798;10.228;2024-03-23T12:22:08;12.60;99.90
26757;DHT22;23848;49.798;10.228;2024-03-23T12:24:34;12.70;99.90
26757;DHT22;23848;49.798;10.228;2024-03-23T12:27:02;12.70;99.90
26757;DHT22;23848;49.798;10.228;2024-03-23T12:29:29;12.70;99.90
26757;DHT22;23848;49.798;10.228;2024-03-23T12:31:59;12.90;99.90
26757;DHT22;23848;49.798;10.228;2024-03-23T12:34:25;12.90;99.90
26757;DHT22;23848;49.798;10.228;2024-03-23T12:36:56;12.80;99.90
26757;DHT22;23848;49.798;10.228;2024-03-23T12:39:25;12.70;99.90
26757;DHT22;23848;49.798;10.228;2024-03-23T12:41:52;12.60;99.90
26757;DHT22;23848;49.798;10.228;2024-03-23T12:44:18;12.50;99.90
26757;DHT22;23848;49.798;10.228;2024-03-23T12:46:46;12.50;99.90
26757;DHT22;23848;49.798;10.228;2024-03-23T12:49:15;12.40;99.90
26757;DHT22;23848;49.798;10.228;2024-03-23T12:51:47;12.30;99.90
26757;DHT22;23848;49.798;10.228;2024-03-23T12:54:15;12.20;99.90
26757;DHT22;23848;49.798;10.228;2024-03-23T12:56:45;12.00;99.90
26757;DHT22;23848;49.798;10.228;2024-03-23T12:59:13;11.50;99.90
26757;DHT22;23848;49.798;10.228;2024-03-23T13:01:43;11.00;99.90
26757;DHT22;23848;49.798;10.228;2024-03-23T13:04:09;10.50;99.90
26757;DHT22;23848;49.798;10.228;2024-03-23T13:06:36;10.20;99.90
26757;DHT22;23848;49.798;10.228;2024-03-23T13:09:09;9.80;99.90
26757;DHT22;23848;49.798;10.228;2024-03-23T13:11:39;9.60;99.90
26757;DHT22;23848;49.798;10.228;2024-03-23T13:14:06;9.50;99.90
26757;DHT22;23848;49.798;10.228;2024-03-23T13:16:33;9.30;99.90
26757;DHT22;23848;49.798;10.228;2024-03-23T13:18:59;9.20;99.90
26757;DHT22;23848;49.798;10.228;2024-03-23T13:21:27;9.40;99.90
26757;DHT22;23848;49.798;10.228;2024-03-23T13:23:53;9.50;99.90
26757;DHT22;23848;49.798;10.228;2024-03-23T13:26:21;9.70;99.90
26757;DHT22;23848;49.798;10.228;2024-03-23T13:28:48;9.90;99.90
26757;DHT22;23848;49.798;10.228;2024-03-23T13:31:15;10.10;99.90
26757;DHT22;23848;49.798;10.228;2024-03-23T13:33:41;10.30;99.90
26757;DHT22;23848;49.798;10.228;2024-03-23T13:36:22;10.40;99.90
26757;DHT22;23848;49.798;10.228;2024-03-23T13:38:49;10.50;99.90
26757;DHT22;23848;49.798;10.228;2024-03-23T13:41:16;10.60;99.90
26757;DHT22;23848;49.798;10.228;2024-03-23T13:43:43;10.70;99.90
26757;DHT22;23848;49.798;10.228;2024-03-23T13:46:11;10.70;99.90
26757;DHT22;23848;49.798;10.228;2024-03-23T13:48:39;10.80;99.90
26757;DHT22;23848;49.798;10.228;2024-03-23T13:51:08;11.00;99.90
26757;DHT22;23848;49.798;10.228;2024-03-23T13:53:36;11.10;99.90
26757;DHT22;23848;49.798;10.228;2024-03-23T13:56:03;11.30;99.90
26757;DHT22;23848;49.798;10.228;2024-03-23T13:58:30;11.50;99.90
26757;DHT22;23848;49.798;10.228;2024-03-23T14:00:57;11.80;99.90
26757;DHT22;23848;49.798;10.228;2024-03-23T14:03:25;12.00;99.90
26757;DHT22;23848;49.798;10.228;2024-03-23T14:05:53;12.00;99.90
26757;DHT22;23848;49.798;10.228;2024-03-23T14:08:22;11.90;99.90
26757;DHT22;23848;49.798;10.228;2024-03-23T14:10:48;11.90;99.90
26757;DHT22;23848;49.798;10.228;2024-03-23T14:13:15;11.70;99.90
26757;DHT22;23848;49.798;10.228;2024-03-23T14:15:41;11.70;99.90
26757;DHT22;23848;49.798;10.228;2024-03-23T14:18:08;11.80;99.90
26757;DHT22;23848;49.798;10.228;2024-03-23T14:20:36;11.90;99.90
26757;DHT22;23848;49.798;10.228;2024-03-23T14:23:03;12.00;99.90
26757;DHT22;23848;49.798;10.228;2024-03-23T14:25:29;12.10;99.90
26757;DHT22;23848;49.798;10.228;2024-03-23T14:27:56;12.10;99.90
26757;DHT22;23848;49.798;10.228;2024-03-23T14:30:23;12.00;99.90
26757;DHT22;23848;49.798;10.228;2024-03-23T14:32:50;11.80;99.90
26757;DHT22;23848;49.798;10.228;2024-03-23T14:35:19;11.80;99.90
26757;DHT22;23848;49.798;10.228;2024-03-23T14:37:48;11.80;99.90
26757;DHT22;23848;49.798;10.228;2024-03-23T14:40:14;11.90;99.90
26757;DHT22;23848;49.798;10.228;2024-03-23T14:42:41;12.00;99.90
26757;DHT22;23848;49.798;10.228;2024-03-23T14:45:08;12.10;99.90
26757;DHT22;23848;49.798;10.228;2024-03-23T14:47:39;12.20;99.90
26757;DHT22;23848;49.798;10.228;2024-03-23T14:50:06;12.20;99.90
26757;DHT22;23848;49.798;10.228;2024-03-23T14:52:34;12.20;99.90
26757;DHT22;23848;49.798;10.228;2024-03-23T14:55:01;12.10;99.90
26757;DHT22;23848;49.798;10.228;2024-03-23T14:57:28;11.90;99.90
26757;DHT22;23848;49.798;10.228;2024-03-23T14:59:55;11.80;99.90
26757;DHT22;23848;49.798;10.228;2024-03-23T15:02:22;11.80;99.90
26757;DHT22;23848;49.798;10.228;2024-03-23T15:04:49;11.80;99.90
26757;DHT22;23848;49.798;10.228;2024-03-23T15:07:16;11.70;99.90
26757;DHT22;23848;49.798;10.228;2024-03-23T15:09:42;11.70;99.90
26757;DHT22;23848;49.798;10.228;2024-03-23T15:12:11;11.60;99.90
26757;DHT22;23848;49.798;10.228;2024-03-23T15:14:37;11.60;99.90
26757;DHT22;23848;49.798;10.228;2024-03-23T15:17:04;11.60;99.90
26757;DHT22;23848;49.798;10.228;2024-03-23T15:19:33;11.40;99.90
26757;DHT22;23848;49.798;10.228;2024-03-23T15:22:02;11.30;99.90
26757;DHT22;23848;49.798;10.228;2024-03-23T15:24:29;11.30;99.90
26757;DHT22;23848;49.798;10.228;2024-03-23T15:26:57;11.20;99.90
26757;DHT22;23848;49.798;10.228;2024-03-23T15:29:25;11.10;99.90
26757;DHT22;23848;49.798;10.228;2024-03-23T15:31:52;10.90;99.90
26757;DHT22;23848;49.798;10.228;2024-03-23T15:34:18;10.70;99.90
26757;DHT22;23848;49.798;10.228;2024-03-23T15:36:47;10.50;99.90
26757;DHT22;23848;49.798;10.228;2024-03-23T15:39:13;10.20;99.90
26757;DHT22;23848;49.798;10.228;2024-03-23T15:41:41;9.90;99.90
26757;DHT22;23848;49.798;10.228;2024-03-23T15:44:07;9.50;99.90
26757;DHT22;23848;49.798;10.228;2024-03-23T15:46:35;9.30;99.90
26757;DHT22;23848;49.798;10.228;2024-03-23T15:49:01;9.10;99.90
26757;DHT22;23848;49.798;10.228;2024-03-23T15:51:29;9.20;99.90
26757;DHT22;23848;49.798;10.228;2024-03-23T15:53:59;9.40;99.90
26757;DHT22;23848;49.798;10.228;2024-03-23T15:56:26;9.60;99.90
26757;DHT22;23848;49.798;10.228;2024-03-23T15:58:52;9.80;99.90
26757;DHT22;23848;49.798;10.228;2024-03-23T16:01:19;9.80;99.90
26757;DHT22;23848;49.798;10.228;2024-03-23T16:03:52;9.90;99.90
26757;DHT22;23848;49.798;10.228;2024-03-23T16:06:22;9.90;99.90
26757;DHT22;23848;49.798;10.228;2024-03-23T16:08:54;9.80;99.90
26757;DHT22;23848;49.798;10.228;2024-03-23T16:11:21;9.80;99.90
26757;DHT22;23848;49.798;10.228;2024-03-23T16:13:47;9.60;99.90
26757;DHT22;23848;49.798;10.228;2024-03-23T16:16:14;9.60;99.90
26757;DHT22;23848;49.798;10.228;2024-03-23T16:18:42;9.60;99.90
26757;DHT22;23848;49.798;10.228;2024-03-23T16:21:13;9.60;99.90
26757;DHT22;23848;49.798;10.228;2024-03-23T16:23:39;9.50;99.90